sensor_id;sensor_type;location;lat;lon;timestamp;P1;durP1;ratioP1;P2;durP2;ratioP2
568;SDS011;269;48.884;9.192;2023-02-10T00:01:03;33.83;;;25.75;;
568;SDS011;269;48.884;9.192;2023-02-10T00:03:31;34.28;;;24.70;;
568;SDS011;269;48.884;9.192;2023-02-10T00:05:59;32.42;;;25.05;;
568;SDS011;269;48.884;9.192;2023-02-10T00:08:28;32.42;;;23.88;;
568;SDS011;269;48.884;9.192;2023-02-10T00:10:56;34.28;;;25.85;;
568;SDS011;269;48.884;9.192;2023-02-10T00:13:23;37.28;;;26.65;;
568;SDS011;269;48.884;9.192;2023-02-10T00:15:50;31.80;;;23.38;;
568;SDS011;269;48.884;9.192;2023-02-10T00:18:17;31.20;;;24.05;;
568;SDS011;269;48.884;9.192;2023-02-10T00:20:45;35.15;;;25.52;;
568;SDS011;269;48.884;9.192;2023-02-10T00:23:12;32.00;;;25.08;;
568;SDS011;269;48.884;9.192;2023-02-10T00:25:40;34.53;;;24.65;;
568;SDS011;269;48.884;9.192;2023-02-10T00:28:07;35.15;;;26.08;;
568;SDS011;269;48.884;9.192;2023-02-10T00:30:35;34.03;;;25.42;;
568;SDS011;269;48.884;9.192;2023-02-10T00:33:03;36.25;;;26.85;;
568;SDS011;269;48.884;9.192;2023-02-10T00:35:30;36.17;;;27.20;;
568;SDS011;269;48.884;9.192;2023-02-10T00:37:58;35.70;;;25.77;;
568;SDS011;269;48.884;9.192;2023-02-10T00:40:24;35.17;;;25.40;;
568;SDS011;269;48.884;9.192;2023-02-10T00:42:53;36.20;;;26.95;;
568;SDS011;269;48.884;9.192;2023-02-10T00:45:20;39.42;;;26.60;;
568;SDS011;269;48.884;9.192;2023-02-10T00:47:47;33.92;;;25.70;;
568;SDS011;269;48.884;9.192;2023-02-10T00:50:15;35.28;;;26.40;;
568;SDS011;269;48.884;9.192;2023-02-10T00:52:42;36.30;;;25.38;;
568;SDS011;269;48.884;9.192;2023-02-10T00:55:12;36.17;;;27.50;;
568;SDS011;269;48.884;9.192;2023-02-10T00:57:38;39.15;;;26.58;;
568;SDS011;269;48.884;9.192;2023-02-10T01:00:08;38.20;;;27.48;;
568;SDS011;269;48.884;9.192;2023-02-10T01:02:36;41.20;;;28.02;;
568;SDS011;269;48.884;9.192;2023-02-10T01:05:03;36.92;;;28.25;;
568;SDS011;269;48.884;9.192;2023-02-10T01:07:30;36.67;;;27.58;;
568;SDS011;269;48.884;9.192;2023-02-10T01:09:57;38.47;;;27.58;;
568;SDS011;269;48.884;9.192;2023-02-10T01:12:24;38.90;;;28.63;;
568;SDS011;269;48.884;9.192;2023-02-10T01:14:52;38.42;;;28.25;;
568;SDS011;269;48.884;9.192;2023-02-10T01:17:20;41.67;;;29.83;;
568;SDS011;269;48.884;9.192;2023-02-10T01:19:47;41.95;;;28.33;;
568;SDS011;269;48.884;9.192;2023-02-10T01:22:16;42.72;;;30.05;;
568;SDS011;269;48.884;9.192;2023-02-10T01:24:43;36.75;;;28.95;;
568;SDS011;269;48.884;9.192;2023-02-10T01:27:10;39.38;;;29.23;;
568;SDS011;269;48.884;9.192;2023-02-10T01:29:37;39.70;;;29.55;;
568;SDS011;269;48.884;9.192;2023-02-10T01:32:04;40.65;;;30.48;;
568;SDS011;269;48.884;9.192;2023-02-10T01:34:32;40.30;;;30.20;;
568;SDS011;269;48.884;9.192;2023-02-10T01:36:59;42.40;;;30.77;;
568;SDS011;269;48.884;9.192;2023-02-10T01:39:26;43.75;;;31.15;;
568;SDS011;269;48.884;9.192;2023-02-10T01:41:53;40.50;;;31.15;;
568;SDS011;269;48.884;9.192;2023-02-10T01:47:37;43.60;;;30.52;;
568;SDS011;269;48.884;9.192;2023-02-10T01:50:06;41.17;;;30.40;;
568;SDS011;269;48.884;9.192;2023-02-10T01:52:33;46.03;;;31.73;;
568;SDS011;269;48.884;9.192;2023-02-10T01:55:01;43.88;;;32.60;;
568;SDS011;269;48.884;9.192;2023-02-10T01:57:31;46.42;;;32.30;;
568;SDS011;269;48.884;9.192;2023-02-10T02:00:00;42.08;;;30.17;;
568;SDS011;269;48.884;9.192;2023-02-10T02:02:28;40.65;;;30.58;;
568;SDS011;269;48.884;9.192;2023-02-10T02:05:01;42.97;;;30.90;;
568;SDS011;269;48.884;9.192;2023-02-10T02:07:32;44.88;;;32.15;;
568;SDS011;269;48.884;9.192;2023-02-10T02:10:03;47.60;;;33.03;;
568;SDS011;269;48.884;9.192;2023-02-10T02:12:34;44.92;;;34.00;;
568;SDS011;269;48.884;9.192;2023-02-10T02:15:09;41.85;;;31.77;;
568;SDS011;269;48.884;9.192;2023-02-10T02:17:42;44.80;;;31.60;;
568;SDS011;269;48.884;9.192;2023-02-10T02:20:23;43.28;;;32.08;;
568;SDS011;269;48.884;9.192;2023-02-10T02:23:20;47.15;;;31.15;;
568;SDS011;269;48.884;9.192;2023-02-10T02:25:58;39.05;;;30.40;;
568;SDS011;269;48.884;9.192;2023-02-10T02:28:45;46.05;;;32.72;;
568;SDS011;269;48.884;9.192;2023-02-10T02:31:32;44.65;;;30.23;;
568;SDS011;269;48.884;9.192;2023-02-10T02:34:12;40.45;;;31.33;;
568;SDS011;269;48.884;9.192;2023-02-10T02:36:44;43.47;;;31.00;;
568;SDS011;269;48.884;9.192;2023-02-10T02:39:15;42.95;;;31.40;;
568;SDS011;269;48.884;9.192;2023-02-10T02:41:42;46.30;;;31.45;;
568;SDS011;269;48.884;9.192;2023-02-10T02:44:09;41.92;;;32.03;;
568;SDS011;269;48.884;9.192;2023-02-10T02:46:41;46.40;;;31.52;;
568;SDS011;269;48.884;9.192;2023-02-10T02:49:21;45.20;;;33.33;;
568;SDS011;269;48.884;9.192;2023-02-10T02:52:00;47.50;;;31.80;;
568;SDS011;269;48.884;9.192;2023-02-10T02:54:32;41.95;;;31.98;;
568;SDS011;269;48.884;9.192;2023-02-10T02:57:09;47.38;;;32.25;;
568;SDS011;269;48.884;9.192;2023-02-10T02:59:43;42.50;;;30.15;;
568;SDS011;269;48.884;9.192;2023-02-10T03:02:16;42.42;;;30.88;;
568;SDS011;269;48.884;9.192;2023-02-10T03:04:46;42.03;;;31.88;;
568;SDS011;269;48.884;9.192;2023-02-10T03:07:14;44.47;;;32.70;;
568;SDS011;269;48.884;9.192;2023-02-10T03:09:41;48.70;;;33.15;;
568;SDS011;269;48.884;9.192;2023-02-10T03:12:09;49.25;;;33.80;;
568;SDS011;269;48.884;9.192;2023-02-10T03:14:37;46.45;;;30.88;;
568;SDS011;269;48.884;9.192;2023-02-10T03:17:04;43.40;;;32.22;;
568;SDS011;269;48.884;9.192;2023-02-10T03:19:33;47.15;;;32.25;;
568;SDS011;269;48.884;9.192;2023-02-10T03:22:00;44.70;;;31.35;;
568;SDS011;269;48.884;9.192;2023-02-10T03:24:27;43.50;;;32.97;;
568;SDS011;269;48.884;9.192;2023-02-10T03:26:54;45.42;;;31.83;;
568;SDS011;269;48.884;9.192;2023-02-10T03:29:21;47.72;;;32.80;;
568;SDS011;269;48.884;9.192;2023-02-10T03:31:48;41.88;;;30.65;;
568;SDS011;269;48.884;9.192;2023-02-10T03:34:16;43.85;;;31.83;;
568;SDS011;269;48.884;9.192;2023-02-10T03:36:44;45.97;;;32.85;;
568;SDS011;269;48.884;9.192;2023-02-10T03:39:11;45.50;;;31.52;;
568;SDS011;269;48.884;9.192;2023-02-10T03:41:38;40.15;;;30.85;;
568;SDS011;269;48.884;9.192;2023-02-10T03:44:05;45.28;;;32.90;;
568;SDS011;269;48.884;9.192;2023-02-10T03:46:32;43.08;;;29.95;;
568;SDS011;269;48.884;9.192;2023-02-10T03:49:01;44.25;;;31.70;;
568;SDS011;269;48.884;9.192;2023-02-10T03:51:28;41.50;;;30.30;;
568;SDS011;269;48.884;9.192;2023-02-10T03:53:56;43.25;;;30.42;;
568;SDS011;269;48.884;9.192;2023-02-10T03:56:23;38.95;;;28.40;;
568;SDS011;269;48.884;9.192;2023-02-10T03:58:50;47.33;;;32.38;;
568;SDS011;269;48.884;9.192;2023-02-10T04:01:17;46.25;;;31.10;;
568;SDS011;269;48.884;9.192;2023-02-10T04:03:44;40.58;;;31.50;;
568;SDS011;269;48.884;9.192;2023-02-10T04:06:11;42.85;;;32.30;;
568;SDS011;269;48.884;9.192;2023-02-10T04:08:39;42.30;;;30.40;;
568;SDS011;269;48.884;9.192;2023-02-10T04:11:08;46.63;;;31.95;;
568;SDS011;269;48.884;9.192;2023-02-10T04:13:36;46.08;;;30.77;;
568;SDS011;269;48.884;9.192;2023-02-10T04:16:04;41.38;;;30.17;;
568;SDS011;269;48.884;9.192;2023-02-10T04:18:33;44.15;;;31.85;;
568;SDS011;269;48.884;9.192;2023-02-10T04:21:01;43.58;;;31.52;;
568;SDS011;269;48.884;9.192;2023-02-10T04:23:28;42.97;;;32.67;;
568;SDS011;269;48.884;9.192;2023-02-10T04:25:56;45.70;;;33.17;;
568;SDS011;269;48.884;9.192;2023-02-10T04:28:24;42.88;;;30.10;;
568;SDS011;269;48.884;9.192;2023-02-10T04:30:52;44.50;;;33.45;;
568;SDS011;269;48.884;9.192;2023-02-10T04:33:19;41.40;;;31.38;;
568;SDS011;269;48.884;9.192;2023-02-10T04:35:47;48.78;;;32.67;;
568;SDS011;269;48.884;9.192;2023-02-10T04:38:14;43.75;;;32.30;;
568;SDS011;269;48.884;9.192;2023-02-10T04:40:42;42.88;;;30.55;;
568;SDS011;269;48.884;9.192;2023-02-10T04:43:09;43.25;;;31.50;;
568;SDS011;269;48.884;9.192;2023-02-10T04:45:37;45.33;;;32.63;;
568;SDS011;269;48.884;9.192;2023-02-10T04:48:05;41.25;;;30.45;;
568;SDS011;269;48.884;9.192;2023-02-10T04:50:32;44.72;;;30.65;;
568;SDS011;269;48.884;9.192;2023-02-10T04:53:01;42.63;;;30.10;;
568;SDS011;269;48.884;9.192;2023-02-10T04:55:28;43.78;;;30.65;;
568;SDS011;269;48.884;9.192;2023-02-10T04:57:55;42.30;;;31.85;;
568;SDS011;269;48.884;9.192;2023-02-10T05:00:22;40.75;;;29.58;;
568;SDS011;269;48.884;9.192;2023-02-10T05:02:51;42.90;;;30.02;;
568;SDS011;269;48.884;9.192;2023-02-10T05:05:18;37.95;;;28.63;;
568;SDS011;269;48.884;9.192;2023-02-10T05:07:45;42.53;;;29.77;;
568;SDS011;269;48.884;9.192;2023-02-10T05:10:12;42.25;;;29.50;;
568;SDS011;269;48.884;9.192;2023-02-10T05:12:39;42.72;;;29.60;;
568;SDS011;269;48.884;9.192;2023-02-10T05:15:07;44.58;;;30.40;;
568;SDS011;269;48.884;9.192;2023-02-10T05:17:35;38.90;;;29.40;;
568;SDS011;269;48.884;9.192;2023-02-10T05:20:04;43.42;;;31.83;;
568;SDS011;269;48.884;9.192;2023-02-10T05:22:34;45.42;;;32.40;;
568;SDS011;269;48.884;9.192;2023-02-10T05:25:01;45.53;;;32.15;;
568;SDS011;269;48.884;9.192;2023-02-10T05:27:28;43.58;;;31.63;;
568;SDS011;269;48.884;9.192;2023-02-10T05:29:55;45.13;;;32.38;;
568;SDS011;269;48.884;9.192;2023-02-10T05:32:22;46.55;;;31.50;;
568;SDS011;269;48.884;9.192;2023-02-10T05:34:49;44.30;;;32.42;;
568;SDS011;269;48.884;9.192;2023-02-10T05:37:18;43.45;;;31.95;;
568;SDS011;269;48.884;9.192;2023-02-10T05:39:45;45.15;;;31.98;;
568;SDS011;269;48.884;9.192;2023-02-10T05:42:12;44.15;;;32.30;;
568;SDS011;269;48.884;9.192;2023-02-10T05:44:39;44.22;;;32.58;;
568;SDS011;269;48.884;9.192;2023-02-10T05:47:06;48.00;;;33.78;;
568;SDS011;269;48.884;9.192;2023-02-10T05:49:33;43.50;;;32.45;;
568;SDS011;269;48.884;9.192;2023-02-10T05:52:00;43.88;;;31.92;;
568;SDS011;269;48.884;9.192;2023-02-10T05:54:28;45.72;;;32.25;;
568;SDS011;269;48.884;9.192;2023-02-10T05:56:56;41.13;;;32.28;;
568;SDS011;269;48.884;9.192;2023-02-10T05:59:23;44.85;;;31.95;;
568;SDS011;269;48.884;9.192;2023-02-10T06:01:50;40.63;;;30.55;;
568;SDS011;269;48.884;9.192;2023-02-10T06:04:18;46.90;;;33.40;;
568;SDS011;269;48.884;9.192;2023-02-10T06:06:44;44.80;;;33.13;;
568;SDS011;269;48.884;9.192;2023-02-10T06:09:12;42.67;;;31.42;;
568;SDS011;269;48.884;9.192;2023-02-10T06:11:40;44.72;;;31.60;;
568;SDS011;269;48.884;9.192;2023-02-10T06:14:07;43.70;;;32.30;;
568;SDS011;269;48.884;9.192;2023-02-10T06:16:34;43.03;;;29.98;;
568;SDS011;269;48.884;9.192;2023-02-10T06:19:01;43.28;;;32.40;;
568;SDS011;269;48.884;9.192;2023-02-10T06:21:28;46.58;;;32.90;;
568;SDS011;269;48.884;9.192;2023-02-10T06:23:56;42.33;;;31.30;;
568;SDS011;269;48.884;9.192;2023-02-10T06:26:23;42.92;;;32.55;;
568;SDS011;269;48.884;9.192;2023-02-10T06:28:51;39.45;;;30.00;;
568;SDS011;269;48.884;9.192;2023-02-10T06:31:18;41.20;;;29.27;;
568;SDS011;269;48.884;9.192;2023-02-10T06:33:45;40.95;;;31.00;;
568;SDS011;269;48.884;9.192;2023-02-10T06:36:12;42.20;;;31.67;;
568;SDS011;269;48.884;9.192;2023-02-10T06:38:40;42.65;;;30.10;;
568;SDS011;269;48.884;9.192;2023-02-10T06:41:07;43.05;;;31.30;;
568;SDS011;269;48.884;9.192;2023-02-10T06:43:34;42.97;;;30.42;;
568;SDS011;269;48.884;9.192;2023-02-10T06:46:02;40.92;;;31.00;;
568;SDS011;269;48.884;9.192;2023-02-10T06:48:30;40.33;;;30.85;;
568;SDS011;269;48.884;9.192;2023-02-10T06:50:57;48.50;;;32.33;;
568;SDS011;269;48.884;9.192;2023-02-10T06:53:24;43.58;;;31.90;;
568;SDS011;269;48.884;9.192;2023-02-10T06:55:51;42.15;;;30.20;;
568;SDS011;269;48.884;9.192;2023-02-10T06:58:22;46.42;;;32.15;;
568;SDS011;269;48.884;9.192;2023-02-10T07:00:49;40.80;;;30.95;;
568;SDS011;269;48.884;9.192;2023-02-10T07:03:17;42.30;;;31.50;;
568;SDS011;269;48.884;9.192;2023-02-10T07:05:44;40.45;;;29.30;;
568;SDS011;269;48.884;9.192;2023-02-10T07:08:11;42.65;;;31.35;;
568;SDS011;269;48.884;9.192;2023-02-10T07:10:38;40.30;;;29.60;;
568;SDS011;269;48.884;9.192;2023-02-10T07:13:05;45.78;;;30.67;;
568;SDS011;269;48.884;9.192;2023-02-10T07:15:33;45.50;;;29.60;;
568;SDS011;269;48.884;9.192;2023-02-10T07:17:59;44.90;;;32.05;;
568;SDS011;269;48.884;9.192;2023-02-10T07:20:28;44.88;;;30.40;;
568;SDS011;269;48.884;9.192;2023-02-10T07:22:55;40.65;;;29.73;;
568;SDS011;269;48.884;9.192;2023-02-10T07:25:22;38.33;;;28.58;;
568;SDS011;269;48.884;9.192;2023-02-10T07:27:49;39.13;;;29.88;;
568;SDS011;269;48.884;9.192;2023-02-10T07:30:16;39.55;;;29.88;;
568;SDS011;269;48.884;9.192;2023-02-10T07:32:43;39.42;;;29.17;;
568;SDS011;269;48.884;9.192;2023-02-10T07:35:10;41.05;;;29.35;;
568;SDS011;269;48.884;9.192;2023-02-10T07:37:39;40.40;;;30.52;;
568;SDS011;269;48.884;9.192;2023-02-10T07:40:07;35.97;;;28.02;;
568;SDS011;269;48.884;9.192;2023-02-10T07:42:35;40.05;;;29.88;;
568;SDS011;269;48.884;9.192;2023-02-10T07:45:02;39.50;;;30.08;;
568;SDS011;269;48.884;9.192;2023-02-10T07:47:30;43.38;;;30.48;;
568;SDS011;269;48.884;9.192;2023-02-10T07:49:57;40.22;;;30.17;;
568;SDS011;269;48.884;9.192;2023-02-10T07:52:24;41.28;;;29.98;;
568;SDS011;269;48.884;9.192;2023-02-10T07:54:52;34.83;;;28.35;;
568;SDS011;269;48.884;9.192;2023-02-10T07:57:20;36.83;;;28.15;;
568;SDS011;269;48.884;9.192;2023-02-10T07:59:48;36.97;;;27.30;;
568;SDS011;269;48.884;9.192;2023-02-10T08:02:15;36.80;;;28.17;;
568;SDS011;269;48.884;9.192;2023-02-10T08:04:42;39.75;;;27.30;;
568;SDS011;269;48.884;9.192;2023-02-10T08:07:09;42.72;;;29.00;;
568;SDS011;269;48.884;9.192;2023-02-10T08:09:37;39.13;;;27.05;;
568;SDS011;269;48.884;9.192;2023-02-10T08:12:06;37.45;;;27.88;;
568;SDS011;269;48.884;9.192;2023-02-10T08:14:33;38.35;;;28.90;;
568;SDS011;269;48.884;9.192;2023-02-10T08:17:00;34.83;;;27.08;;
568;SDS011;269;48.884;9.192;2023-02-10T08:19:27;38.90;;;25.17;;
568;SDS011;269;48.884;9.192;2023-02-10T08:21:55;38.88;;;26.52;;
568;SDS011;269;48.884;9.192;2023-02-10T08:24:21;40.00;;;29.15;;
568;SDS011;269;48.884;9.192;2023-02-10T08:26:48;38.15;;;28.00;;
568;SDS011;269;48.884;9.192;2023-02-10T08:29:17;35.90;;;26.80;;
568;SDS011;269;48.884;9.192;2023-02-10T08:31:44;34.85;;;26.65;;
568;SDS011;269;48.884;9.192;2023-02-10T08:34:13;35.08;;;25.25;;
568;SDS011;269;48.884;9.192;2023-02-10T08:36:41;36.60;;;28.05;;
568;SDS011;269;48.884;9.192;2023-02-10T08:39:08;35.40;;;26.35;;
568;SDS011;269;48.884;9.192;2023-02-10T08:41:36;33.28;;;27.17;;
568;SDS011;269;48.884;9.192;2023-02-10T08:44:04;36.65;;;27.00;;
568;SDS011;269;48.884;9.192;2023-02-10T08:46:33;54.08;;;27.38;;
568;SDS011;269;48.884;9.192;2023-02-10T08:49:00;34.63;;;25.45;;
568;SDS011;269;48.884;9.192;2023-02-10T08:51:27;34.35;;;25.83;;
568;SDS011;269;48.884;9.192;2023-02-10T08:53:55;31.08;;;24.90;;
568;SDS011;269;48.884;9.192;2023-02-10T08:56:23;33.65;;;25.80;;
568;SDS011;269;48.884;9.192;2023-02-10T08:58:50;34.53;;;25.60;;
568;SDS011;269;48.884;9.192;2023-02-10T09:01:18;35.22;;;25.35;;
568;SDS011;269;48.884;9.192;2023-02-10T09:03:47;35.13;;;25.08;;
568;SDS011;269;48.884;9.192;2023-02-10T09:06:16;34.72;;;25.15;;
568;SDS011;269;48.884;9.192;2023-02-10T09:08:45;32.95;;;24.90;;
568;SDS011;269;48.884;9.192;2023-02-10T09:11:13;29.65;;;23.98;;
568;SDS011;269;48.884;9.192;2023-02-10T09:13:40;39.80;;;26.30;;
568;SDS011;269;48.884;9.192;2023-02-10T09:16:07;31.70;;;24.77;;
568;SDS011;269;48.884;9.192;2023-02-10T09:18:34;27.95;;;23.17;;
568;SDS011;269;48.884;9.192;2023-02-10T09:21:03;31.30;;;24.25;;
568;SDS011;269;48.884;9.192;2023-02-10T09:23:30;27.65;;;23.92;;
568;SDS011;269;48.884;9.192;2023-02-10T09:25:58;26.85;;;22.95;;
568;SDS011;269;48.884;9.192;2023-02-10T09:28:26;27.65;;;23.80;;
568;SDS011;269;48.884;9.192;2023-02-10T09:30:53;26.42;;;22.80;;
568;SDS011;269;48.884;9.192;2023-02-10T09:33:21;27.48;;;22.58;;
568;SDS011;269;48.884;9.192;2023-02-10T09:35:48;25.35;;;22.20;;
568;SDS011;269;48.884;9.192;2023-02-10T09:38:16;25.08;;;22.38;;
568;SDS011;269;48.884;9.192;2023-02-10T09:40:49;24.38;;;21.77;;
568;SDS011;269;48.884;9.192;2023-02-10T09:43:27;25.20;;;22.50;;
568;SDS011;269;48.884;9.192;2023-02-10T09:46:13;25.25;;;22.45;;
568;SDS011;269;48.884;9.192;2023-02-10T09:48:51;25.73;;;21.92;;
568;SDS011;269;48.884;9.192;2023-02-10T09:51:29;26.40;;;22.52;;
568;SDS011;269;48.884;9.192;2023-02-10T09:54:08;28.23;;;22.58;;
568;SDS011;269;48.884;9.192;2023-02-10T09:56:36;24.15;;;21.42;;
568;SDS011;269;48.884;9.192;2023-02-10T09:59:05;27.23;;;22.38;;
568;SDS011;269;48.884;9.192;2023-02-10T10:01:37;29.60;;;22.35;;
568;SDS011;269;48.884;9.192;2023-02-10T10:04:08;27.80;;;23.50;;
568;SDS011;269;48.884;9.192;2023-02-10T10:06:40;26.80;;;23.10;;
568;SDS011;269;48.884;9.192;2023-02-10T10:09:15;25.67;;;22.50;;
568;SDS011;269;48.884;9.192;2023-02-10T10:11:50;28.27;;;23.10;;
568;SDS011;269;48.884;9.192;2023-02-10T10:14:19;27.13;;;24.13;;
568;SDS011;269;48.884;9.192;2023-02-10T10:17:02;24.95;;;22.35;;
568;SDS011;269;48.884;9.192;2023-02-10T10:19:45;24.50;;;21.90;;
568;SDS011;269;48.884;9.192;2023-02-10T10:22:27;25.35;;;22.65;;
568;SDS011;269;48.884;9.192;2023-02-10T10:25:15;26.50;;;23.67;;
568;SDS011;269;48.884;9.192;2023-02-10T10:28:01;24.85;;;22.38;;
568;SDS011;269;48.884;9.192;2023-02-10T10:30:37;26.77;;;24.00;;
568;SDS011;269;48.884;9.192;2023-02-10T10:33:13;24.77;;;22.27;;
568;SDS011;269;48.884;9.192;2023-02-10T10:35:48;24.75;;;22.17;;
568;SDS011;269;48.884;9.192;2023-02-10T10:38:17;26.77;;;23.35;;
568;SDS011;269;48.884;9.192;2023-02-10T10:40:51;25.47;;;22.77;;
568;SDS011;269;48.884;9.192;2023-02-10T10:43:21;24.57;;;22.07;;
568;SDS011;269;48.884;9.192;2023-02-10T10:45:52;23.70;;;21.43;;
568;SDS011;269;48.884;9.192;2023-02-10T10:48:25;37.10;;;32.93;;
568;SDS011;269;48.884;9.192;2023-02-10T10:50:55;129.83;;;116.97;;
568;SDS011;269;48.884;9.192;2023-02-10T10:53:28;26.07;;;23.53;;
568;SDS011;269;48.884;9.192;2023-02-10T10:56:06;24.17;;;21.63;;
568;SDS011;269;48.884;9.192;2023-02-10T10:58:38;22.53;;;20.23;;
568;SDS011;269;48.884;9.192;2023-02-10T11:01:10;23.00;;;20.60;;
568;SDS011;269;48.884;9.192;2023-02-10T11:03:38;22.73;;;20.53;;
568;SDS011;269;48.884;9.192;2023-02-10T11:06:06;21.70;;;19.23;;
568;SDS011;269;48.884;9.192;2023-02-10T11:08:36;23.23;;;20.97;;
568;SDS011;269;48.884;9.192;2023-02-10T11:11:09;22.83;;;20.53;;
568;SDS011;269;48.884;9.192;2023-02-10T11:13:39;23.40;;;20.90;;
568;SDS011;269;48.884;9.192;2023-02-10T11:16:08;22.40;;;20.10;;
568;SDS011;269;48.884;9.192;2023-02-10T11:18:37;24.67;;;22.40;;
568;SDS011;269;48.884;9.192;2023-02-10T11:21:06;21.90;;;19.80;;
568;SDS011;269;48.884;9.192;2023-02-10T11:23:35;20.77;;;18.87;;
568;SDS011;269;48.884;9.192;2023-02-10T11:26:18;23.10;;;20.93;;
568;SDS011;269;48.884;9.192;2023-02-10T11:28:46;19.60;;;17.80;;
568;SDS011;269;48.884;9.192;2023-02-10T11:31:19;22.30;;;20.20;;
568;SDS011;269;48.884;9.192;2023-02-10T11:33:54;20.97;;;18.87;;
568;SDS011;269;48.884;9.192;2023-02-10T11:36:28;23.20;;;20.80;;
568;SDS011;269;48.884;9.192;2023-02-10T11:39:01;21.90;;;19.90;;
568;SDS011;269;48.884;9.192;2023-02-10T11:41:31;24.97;;;21.70;;
568;SDS011;269;48.884;9.192;2023-02-10T11:43:59;27.20;;;21.43;;
568;SDS011;269;48.884;9.192;2023-02-10T11:46:28;23.77;;;21.47;;
568;SDS011;269;48.884;9.192;2023-02-10T11:48:57;43.70;;;39.17;;
568;SDS011;269;48.884;9.192;2023-02-10T11:51:26;72.90;;;65.80;;
568;SDS011;269;48.884;9.192;2023-02-10T11:53:54;29.40;;;26.40;;
568;SDS011;269;48.884;9.192;2023-02-10T11:56:23;19.27;;;17.47;;
568;SDS011;269;48.884;9.192;2023-02-10T11:59:09;21.37;;;19.23;;
568;SDS011;269;48.884;9.192;2023-02-10T12:01:48;20.83;;;18.80;;
568;SDS011;269;48.884;9.192;2023-02-10T12:07:39;25.80;;;20.90;;
568;SDS011;269;48.884;9.192;2023-02-10T12:10:19;19.77;;;17.97;;
568;SDS011;269;48.884;9.192;2023-02-10T12:12:52;26.77;;;19.83;;
568;SDS011;269;48.884;9.192;2023-02-10T12:15:32;22.07;;;20.07;;
568;SDS011;269;48.884;9.192;2023-02-10T12:18:09;22.10;;;20.00;;
568;SDS011;269;48.884;9.192;2023-02-10T12:20:49;22.70;;;20.60;;
568;SDS011;269;48.884;9.192;2023-02-10T12:23:35;24.33;;;22.03;;
568;SDS011;269;48.884;9.192;2023-02-10T12:26:18;23.60;;;21.30;;
568;SDS011;269;48.884;9.192;2023-02-10T12:28:52;23.13;;;21.03;;
568;SDS011;269;48.884;9.192;2023-02-10T12:31:34;21.83;;;19.63;;
568;SDS011;269;48.884;9.192;2023-02-10T12:34:22;23.37;;;21.27;;
568;SDS011;269;48.884;9.192;2023-02-10T12:37:12;22.47;;;20.30;;
568;SDS011;269;48.884;9.192;2023-02-10T12:39:53;21.90;;;19.80;;
568;SDS011;269;48.884;9.192;2023-02-10T12:42:42;31.87;;;28.93;;
568;SDS011;269;48.884;9.192;2023-02-10T12:45:17;47.67;;;26.00;;
568;SDS011;269;48.884;9.192;2023-02-10T12:47:56;20.70;;;18.80;;
568;SDS011;269;48.884;9.192;2023-02-10T12:50:33;20.10;;;18.20;;
568;SDS011;269;48.884;9.192;2023-02-10T12:53:10;20.83;;;18.80;;
568;SDS011;269;48.884;9.192;2023-02-10T12:55:44;20.67;;;18.30;;
568;SDS011;269;48.884;9.192;2023-02-10T12:58:19;21.50;;;19.43;;
568;SDS011;269;48.884;9.192;2023-02-10T13:00:50;20.63;;;18.43;;
568;SDS011;269;48.884;9.192;2023-02-10T13:03:22;30.40;;;19.70;;
568;SDS011;269;48.884;9.192;2023-02-10T13:05:57;19.70;;;17.90;;
568;SDS011;269;48.884;9.192;2023-02-10T13:08:30;19.67;;;17.77;;
568;SDS011;269;48.884;9.192;2023-02-10T13:11:05;18.53;;;16.80;;
568;SDS011;269;48.884;9.192;2023-02-10T13:13:37;19.40;;;17.50;;
568;SDS011;269;48.884;9.192;2023-02-10T13:16:09;18.30;;;16.50;;
568;SDS011;269;48.884;9.192;2023-02-10T13:18:45;19.13;;;17.37;;
568;SDS011;269;48.884;9.192;2023-02-10T13:21:17;19.63;;;17.73;;
568;SDS011;269;48.884;9.192;2023-02-10T13:23:52;19.43;;;17.33;;
568;SDS011;269;48.884;9.192;2023-02-10T13:26:32;18.90;;;16.93;;
568;SDS011;269;48.884;9.192;2023-02-10T13:29:18;19.50;;;17.50;;
568;SDS011;269;48.884;9.192;2023-02-10T13:34:56;19.50;;;17.60;;
568;SDS011;269;48.884;9.192;2023-02-10T13:37:27;19.83;;;16.77;;
568;SDS011;269;48.884;9.192;2023-02-10T13:39:58;18.40;;;16.60;;
568;SDS011;269;48.884;9.192;2023-02-10T13:42:28;18.83;;;17.00;;
568;SDS011;269;48.884;9.192;2023-02-10T13:44:59;20.30;;;18.30;;
568;SDS011;269;48.884;9.192;2023-02-10T13:47:35;19.97;;;17.97;;
568;SDS011;269;48.884;9.192;2023-02-10T13:50:06;18.90;;;17.03;;
568;SDS011;269;48.884;9.192;2023-02-10T13:52:49;19.53;;;17.57;;
568;SDS011;269;48.884;9.192;2023-02-10T13:55:26;21.93;;;19.67;;
568;SDS011;269;48.884;9.192;2023-02-10T13:58:15;20.17;;;17.90;;
568;SDS011;269;48.884;9.192;2023-02-10T14:04:25;23.00;;;20.73;;
568;SDS011;269;48.884;9.192;2023-02-10T14:06:56;22.90;;;20.50;;
568;SDS011;269;48.884;9.192;2023-02-10T14:09:31;20.60;;;18.40;;
568;SDS011;269;48.884;9.192;2023-02-10T14:12:03;23.60;;;21.20;;
568;SDS011;269;48.884;9.192;2023-02-10T14:14:32;21.90;;;19.70;;
568;SDS011;269;48.884;9.192;2023-02-10T14:17:03;20.73;;;18.53;;
568;SDS011;269;48.884;9.192;2023-02-10T14:19:32;19.80;;;17.80;;
568;SDS011;269;48.884;9.192;2023-02-10T14:22:02;19.90;;;17.90;;
568;SDS011;269;48.884;9.192;2023-02-10T14:24:32;20.80;;;18.60;;
568;SDS011;269;48.884;9.192;2023-02-10T14:27:02;21.70;;;19.50;;
568;SDS011;269;48.884;9.192;2023-02-10T14:29:32;22.13;;;18.70;;
568;SDS011;269;48.884;9.192;2023-02-10T14:32:00;20.77;;;18.67;;
568;SDS011;269;48.884;9.192;2023-02-10T14:34:31;21.40;;;19.20;;
568;SDS011;269;48.884;9.192;2023-02-10T14:36:59;22.73;;;20.33;;
568;SDS011;269;48.884;9.192;2023-02-10T14:39:30;20.13;;;18.10;;
568;SDS011;269;48.884;9.192;2023-02-10T14:41:58;22.20;;;19.85;;
568;SDS011;269;48.884;9.192;2023-02-10T14:44:39;21.77;;;19.48;;
568;SDS011;269;48.884;9.192;2023-02-10T14:47:14;23.33;;;20.77;;
568;SDS011;269;48.884;9.192;2023-02-10T14:49:42;20.60;;;18.50;;
568;SDS011;269;48.884;9.192;2023-02-10T14:52:19;22.15;;;19.77;;
568;SDS011;269;48.884;9.192;2023-02-10T14:54:51;23.63;;;18.90;;
568;SDS011;269;48.884;9.192;2023-02-10T14:57:19;23.65;;;20.80;;
568;SDS011;269;48.884;9.192;2023-02-10T14:59:52;21.17;;;18.88;;
568;SDS011;269;48.884;9.192;2023-02-10T15:02:20;20.83;;;18.73;;
568;SDS011;269;48.884;9.192;2023-02-10T15:04:52;21.45;;;19.08;;
568;SDS011;269;48.884;9.192;2023-02-10T15:07:23;22.88;;;20.38;;
568;SDS011;269;48.884;9.192;2023-02-10T15:09:53;24.27;;;19.95;;
568;SDS011;269;48.884;9.192;2023-02-10T15:12:22;21.10;;;18.90;;
568;SDS011;269;48.884;9.192;2023-02-10T15:14:51;23.00;;;18.67;;
568;SDS011;269;48.884;9.192;2023-02-10T15:17:22;21.55;;;18.70;;
568;SDS011;269;48.884;9.192;2023-02-10T15:19:54;21.25;;;18.85;;
568;SDS011;269;48.884;9.192;2023-02-10T15:22:33;21.08;;;18.80;;
568;SDS011;269;48.884;9.192;2023-02-10T15:25:27;21.77;;;19.48;;
568;SDS011;269;48.884;9.192;2023-02-10T15:28:16;21.50;;;19.17;;
568;SDS011;269;48.884;9.192;2023-02-10T15:30:54;22.13;;;19.73;;
568;SDS011;269;48.884;9.192;2023-02-10T15:33:24;22.08;;;17.73;;
568;SDS011;269;48.884;9.192;2023-02-10T15:35:54;20.77;;;18.58;;
568;SDS011;269;48.884;9.192;2023-02-10T15:38:22;20.58;;;18.23;;
568;SDS011;269;48.884;9.192;2023-02-10T15:40:52;21.63;;;18.42;;
568;SDS011;269;48.884;9.192;2023-02-10T15:43:24;19.88;;;17.75;;
568;SDS011;269;48.884;9.192;2023-02-10T15:46:04;19.98;;;17.48;;
568;SDS011;269;48.884;9.192;2023-02-10T15:48:32;21.60;;;19.38;;